首页
METAR-TAF:

METAR-TAF

机场 :

Guymon, 奧克拉荷馬州, 美国

纬度: 36-40-54N, 经度: 101-30-19W, 海拔: 952米

当前天气观测

该预报发布于19分钟前的09:22 UTC
风速10节,风向
温度 -1°C
湿度 93%
气压 1022 hPa
能見度: 4.8公里
散云层高于700英尺
多云层高于1700英尺
阴天层高于3800英尺
小雪, 轻雾

METAR: KGUY 220922Z AUTO 01010KT 3SM -SN BR SCT007 BKN017 OVC038 M01/M02 A3017 RMK AO2 P0000 T10111022

时间: 03:41 (09:41 UTC)

预报

该预报发布于51分钟前的08:50 UTC
预报有效从22日的 09点(UTC)到 23日的 06点(UTC)
风速8节,风向北转东北
能見度: 3.2公里
多云层高于1000英尺
阴天层高于1500英尺
轻雾
从 22日的 1000点(UTC)
风速3节,风向多变
能見度: 4.8公里
阴天层高于300英尺
轻雾
从 22日的 1900点(UTC)
风速8节,风向北转东北
能見度: 10公里
阴天层高于1500英尺
从 23日的 0100点(UTC)
风速3节,风向多变
能見度: 6.4公里
阴天层高于600英尺
轻雾

TAF: KGUY 220850Z 2209/2306 02008KT 2SM BR BKN010 OVC015 FM221000 VRB03KT 3SM BR OVC003 FM221900 03008KT P6SM OVC015 FM230100 VRB03KT 4SM BR OVC006

超过4000个机场的气象观测和天气预报(METAR&TAF报告)。

可查询的气象台以黄色和红色小点在地图上表示。

将鼠标移到小点上方,可查看气象台名称。

然后点击查看天气观测和预报。

如需切换地图:点击带黑十字的绿色按钮放大地图;点击带横线的绿色按钮缩小地图;或者点击绿色箭头查看邻近地区的地图。


METAR-TAF: